createdAt,value
2023-05-14T00:01:00.547Z,102128.06
2023-05-14T00:03:27.249Z,102120.81
2023-05-14T00:05:53.796Z,102124.16
2023-05-14T00:08:20.349Z,102121.34
2023-05-14T00:10:46.994Z,102094.59
2023-05-14T00:13:13.724Z,102113.41
2023-05-14T00:15:40.206Z,102128.22
2023-05-14T00:18:07.119Z,102110.91
2023-05-14T00:20:33.600Z,102107.84
2023-05-14T00:23:01.021Z,102102.94
2023-05-14T00:25:27.652Z,102101.25
2023-05-14T00:27:54.080Z,102082.09
2023-05-14T00:30:20.706Z,102078.69
2023-05-14T00:32:47.170Z,102083.88
2023-05-14T00:35:13.632Z,102099.66
2023-05-14T00:37:40.080Z,102084.28
2023-05-14T00:40:08.510Z,102077.28
2023-05-14T00:42:35.021Z,102091.13
2023-05-14T00:45:01.508Z,102079.75
2023-05-14T00:47:28.163Z,102057.09
2023-05-14T00:49:54.599Z,102081.44
2023-05-14T00:52:22.068Z,102074.44
2023-05-14T00:54:49.285Z,102084.34
2023-05-14T00:57:15.807Z,102062.00
2023-05-14T00:59:42.773Z,102062.97
2023-05-14T01:02:09.384Z,102055.66
2023-05-14T01:04:36.185Z,102062.75
2023-05-14T01:07:27.596Z,102070.44
2023-05-14T01:10:04.087Z,102079.34
2023-05-14T01:12:40.756Z,102051.03
2023-05-14T01:15:19.346Z,102072.75
2023-05-14T01:17:52.095Z,102077.50
2023-05-14T01:20:18.692Z,102032.28
2023-05-14T01:22:45.356Z,102067.78
2023-05-14T01:25:11.974Z,102055.78
2023-05-14T01:27:52.850Z,102035.72
2023-05-14T01:30:29.366Z,102081.50
2023-05-14T01:32:58.865Z,102072.25
2023-05-14T01:35:27.727Z,102021.97
2023-05-14T01:37:56.746Z,102075.72
2023-05-14T01:40:24.253Z,102069.47
2023-05-14T01:42:51.964Z,102069.88
2023-05-14T01:45:21.357Z,102055.72
2023-05-14T01:47:48.025Z,102043.97
2023-05-14T01:50:14.513Z,102063.50
2023-05-14T01:52:41.039Z,102045.63
2023-05-14T01:55:07.892Z,102036.00
2023-05-14T01:57:34.427Z,102047.31
2023-05-14T02:00:00.872Z,102044.28
2023-05-14T02:02:27.324Z,102035.56
2023-05-14T02:04:53.812Z,102041.31
2023-05-14T02:07:20.233Z,102045.63
2023-05-14T02:09:46.684Z,102041.16
2023-05-14T02:12:13.124Z,102022.81
2023-05-14T02:14:39.615Z,102023.66
2023-05-14T02:17:06.076Z,102035.19
2023-05-14T02:19:32.503Z,102034.94
2023-05-14T02:22:00.202Z,102041.09
2023-05-14T02:24:27.007Z,102033.66
2023-05-14T02:26:53.460Z,102042.78
2023-05-14T02:29:20.408Z,102032.44
2023-05-14T02:31:46.873Z,101998.00
2023-05-14T02:34:13.385Z,102025.13
2023-05-14T02:36:40.022Z,102036.28
2023-05-14T02:39:06.657Z,102029.59
2023-05-14T02:41:33.124Z,102022.50
2023-05-14T02:43:59.677Z,102031.28
2023-05-14T02:46:26.233Z,101999.94
2023-05-14T02:48:52.802Z,102013.50
2023-05-14T02:51:20.137Z,102026.38
2023-05-14T02:53:46.908Z,102007.50
2023-05-14T02:56:13.291Z,102013.63
2023-05-14T02:58:39.782Z,102016.41
2023-05-14T03:01:06.216Z,102011.38
2023-05-14T03:03:33.830Z,102009.94
2023-05-14T03:06:00.843Z,102007.31
2023-05-14T03:08:27.266Z,102016.91
2023-05-14T03:10:53.683Z,102015.59
2023-05-14T03:13:20.813Z,102023.91
2023-05-14T03:15:47.678Z,102020.19
2023-05-14T03:18:14.445Z,102024.13
2023-05-14T03:20:41.617Z,102018.00
2023-05-14T03:23:08.104Z,102002.75
2023-05-14T03:25:34.582Z,101985.97
2023-05-14T03:28:01.001Z,102026.16
2023-05-14T03:30:27.560Z,102014.16
2023-05-14T03:32:54.210Z,102002.97
2023-05-14T03:35:20.709Z,102011.03
2023-05-14T03:37:47.133Z,102010.44
2023-05-14T03:40:13.525Z,102019.81
2023-05-14T03:42:39.954Z,101993.16
2023-05-14T03:45:07.133Z,101992.31
2023-05-14T03:47:33.567Z,102002.75
2023-05-14T03:50:00.100Z,102008.78
2023-05-14T03:52:26.552Z,101994.47
2023-05-14T03:54:52.963Z,101994.81
2023-05-14T03:57:19.351Z,101993.41
2023-05-14T03:59:45.739Z,101978.28
2023-05-14T04:02:12.227Z,101988.34
2023-05-14T04:04:38.743Z,101994.34
2023-05-14T04:07:05.252Z,101990.75
2023-05-14T04:09:31.777Z,102000.38
2023-05-14T04:11:58.209Z,102004.94
2023-05-14T04:14:24.879Z,102000.72
2023-05-14T04:16:51.455Z,101988.03
2023-05-14T04:19:18.491Z,101998.69
2023-05-14T04:21:45.256Z,101989.81
2023-05-14T04:24:11.680Z,102006.03
2023-05-14T04:26:38.066Z,102002.09
2023-05-14T04:29:04.465Z,101995.81
2023-05-14T04:31:31.653Z,102005.59
2023-05-14T04:33:58.158Z,101975.09
2023-05-14T04:36:24.838Z,101997.88
2023-05-14T04:38:51.828Z,102007.63
2023-05-14T04:41:18.272Z,101996.81
2023-05-14T04:43:44.706Z,101995.00
2023-05-14T04:46:11.519Z,102003.38
2023-05-14T04:48:38.122Z,101997.50
2023-05-14T04:51:06.348Z,102009.28
2023-05-14T04:53:33.576Z,102002.63
2023-05-14T04:55:59.985Z,101999.28
2023-05-14T04:58:28.858Z,101986.31
2023-05-14T05:00:55.324Z,102001.72
2023-05-14T05:03:21.875Z,102005.84
2023-05-14T05:05:48.383Z,102000.53
2023-05-14T05:08:14.884Z,102007.25
2023-05-14T05:10:41.378Z,102003.63
2023-05-14T05:13:07.822Z,102005.19
2023-05-14T05:15:34.259Z,101995.16
2023-05-14T05:18:00.854Z,102014.63
2023-05-14T05:20:28.278Z,102013.28
2023-05-14T05:22:54.880Z,102003.06
2023-05-14T05:25:21.556Z,102009.06
2023-05-14T05:27:48.004Z,102009.53
2023-05-14T05:30:14.430Z,102010.25
2023-05-14T05:32:41.076Z,101959.66
2023-05-14T05:35:07.795Z,101997.91
2023-05-14T05:37:34.225Z,102000.09
2023-05-14T05:40:00.757Z,102010.88
2023-05-14T05:42:27.220Z,101999.44
2023-05-14T05:44:53.652Z,102005.91
2023-05-14T05:47:20.087Z,101997.09
2023-05-14T05:49:46.576Z,102026.44
2023-05-14T05:52:13.298Z,102004.22
2023-05-14T05:54:39.886Z,102016.22
2023-05-14T05:57:06.298Z,102006.72
2023-05-14T05:59:32.824Z,101983.81
2023-05-14T06:01:59.315Z,101987.53
2023-05-14T06:04:25.722Z,102022.94
2023-05-14T06:06:52.358Z,102013.09
2023-05-14T06:09:18.733Z,102018.19
2023-05-14T06:11:45.230Z,102012.75
2023-05-14T06:14:11.674Z,102010.09
2023-05-14T06:16:38.195Z,102010.03
2023-05-14T06:19:04.723Z,102019.25
2023-05-14T06:21:31.373Z,102019.63
2023-05-14T06:23:57.811Z,102010.97
2023-05-14T06:26:24.258Z,102018.41
2023-05-14T06:28:50.638Z,102002.16
2023-05-14T06:31:17.552Z,102022.03
2023-05-14T06:33:44.345Z,102027.06
2023-05-14T06:36:10.901Z,102009.75
2023-05-14T06:38:37.687Z,102021.47
2023-05-14T06:41:04.138Z,102011.13
2023-05-14T06:43:30.632Z,101997.41
2023-05-14T06:45:57.122Z,102005.13
2023-05-14T06:48:23.681Z,102006.78
2023-05-14T06:50:50.242Z,102009.41
2023-05-14T06:53:17.038Z,101996.66
2023-05-14T06:55:43.522Z,102006.41
2023-05-14T06:58:09.983Z,101990.91
2023-05-14T07:00:36.403Z,101995.78
2023-05-14T07:03:02.952Z,101998.72
2023-05-14T07:05:29.512Z,102003.00
2023-05-14T07:07:55.997Z,102008.44
2023-05-14T07:10:23.088Z,102010.38
2023-05-14T07:12:49.906Z,101994.19
2023-05-14T07:15:16.616Z,102013.75
2023-05-14T07:17:43.093Z,102012.09
2023-05-14T07:20:10.322Z,102022.22
2023-05-14T07:22:36.779Z,102014.78
2023-05-14T07:25:03.536Z,101997.88
2023-05-14T07:27:29.974Z,101990.78
2023-05-14T07:29:56.461Z,102010.06
2023-05-14T07:32:25.146Z,102002.81
2023-05-14T07:34:51.735Z,102021.97
2023-05-14T07:37:18.798Z,102002.09
2023-05-14T07:39:45.262Z,101991.19
2023-05-14T07:42:13.744Z,101997.63
2023-05-14T07:44:46.016Z,102010.34
2023-05-14T07:47:12.474Z,102017.22
2023-05-14T07:49:38.952Z,101993.06
2023-05-14T07:52:05.615Z,102008.72
2023-05-14T07:54:32.037Z,101998.94
2023-05-14T07:56:58.436Z,102008.16
2023-05-14T07:59:24.966Z,102011.09
2023-05-14T08:01:51.511Z,102012.38
2023-05-14T08:04:18.192Z,102016.00
2023-05-14T08:06:44.703Z,102002.16
2023-05-14T08:09:11.278Z,102001.59
2023-05-14T08:11:37.707Z,102001.84
2023-05-14T08:14:04.123Z,102002.44
2023-05-14T08:16:30.638Z,101993.06
2023-05-14T08:18:57.138Z,101993.84
2023-05-14T08:21:28.080Z,101986.44
2023-05-14T08:23:54.476Z,102005.16
2023-05-14T08:26:21.943Z,101995.63
2023-05-14T08:28:48.373Z,102009.56
2023-05-14T08:31:14.894Z,101989.66
2023-05-14T08:33:41.356Z,101997.97
2023-05-14T08:36:08.012Z,101984.16
2023-05-14T08:38:34.447Z,101999.34
2023-05-14T08:41:01.151Z,101982.53
2023-05-14T08:43:35.861Z,101987.50
2023-05-14T08:46:06.015Z,101979.75
2023-05-14T08:48:34.409Z,101976.56
2023-05-14T08:51:02.005Z,101981.81
2023-05-14T08:53:28.543Z,101976.56
2023-05-14T08:55:55.057Z,101963.53
2023-05-14T08:58:21.657Z,101990.88
2023-05-14T09:00:48.254Z,101966.00
2023-05-14T09:03:15.971Z,101971.75
2023-05-14T09:05:42.770Z,101957.31
2023-05-14T09:08:09.188Z,101965.00
2023-05-14T09:10:35.569Z,101971.72
2023-05-14T09:13:02.001Z,101970.50
2023-05-14T09:15:29.621Z,101963.78
2023-05-14T09:17:57.016Z,101961.13
2023-05-14T09:20:25.073Z,101950.97
2023-05-14T09:22:54.848Z,101952.56
2023-05-14T09:25:27.267Z,101908.59
2023-05-14T09:27:56.197Z,101944.25
2023-05-14T09:30:25.482Z,101962.75
2023-05-14T09:32:54.489Z,101904.25
2023-05-14T09:35:24.436Z,101944.50
2023-05-14T09:37:53.676Z,101953.84
2023-05-14T09:40:22.395Z,101948.56
2023-05-14T09:42:49.561Z,101937.91
2023-05-14T09:45:16.727Z,101945.63
2023-05-14T09:47:43.288Z,101930.63
2023-05-14T09:50:09.981Z,101935.84
2023-05-14T09:52:37.305Z,101939.53
2023-05-14T09:55:04.194Z,101933.19
2023-05-14T09:57:30.934Z,101928.41
2023-05-14T09:59:57.392Z,101938.78
2023-05-14T10:02:38.528Z,101939.47
2023-05-14T10:05:07.037Z,101931.78
2023-05-14T10:07:43.006Z,101934.16
2023-05-14T10:10:15.277Z,101930.84
2023-05-14T10:12:44.758Z,101942.38
2023-05-14T10:15:19.579Z,101931.72
2023-05-14T10:17:50.011Z,101920.72
2023-05-14T10:20:17.655Z,101931.56
2023-05-14T10:22:44.244Z,101924.22
2023-05-14T10:25:11.246Z,101891.34
2023-05-14T10:27:38.186Z,101915.22
2023-05-14T10:30:10.263Z,101876.97
2023-05-14T10:32:37.932Z,101902.53
2023-05-14T10:35:16.632Z,101913.91
2023-05-14T10:37:44.749Z,101907.94
2023-05-14T10:40:12.984Z,101914.28
2023-05-14T10:42:40.947Z,101889.53
2023-05-14T10:45:11.567Z,101909.09
2023-05-14T10:47:40.534Z,101905.91
2023-05-14T10:50:10.037Z,101910.38
2023-05-14T10:52:36.961Z,101886.69
2023-05-14T10:55:08.282Z,101872.66
2023-05-14T10:57:38.105Z,101893.84
2023-05-14T11:00:10.711Z,101894.19
2023-05-14T11:02:39.311Z,101894.13
2023-05-14T11:05:15.574Z,101889.97
2023-05-14T11:07:48.739Z,101896.09
2023-05-14T11:10:17.463Z,101893.25
2023-05-14T11:12:48.806Z,101895.75
2023-05-14T11:15:18.472Z,101887.19
2023-05-14T11:17:46.922Z,101883.34
2023-05-14T11:20:14.065Z,101885.03
2023-05-14T11:22:41.899Z,101862.81
2023-05-14T11:25:09.578Z,101872.47
2023-05-14T11:27:38.668Z,101874.78
2023-05-14T11:30:06.618Z,101865.09
2023-05-14T11:32:33.373Z,101866.19
2023-05-14T11:34:59.788Z,101861.00
2023-05-14T11:37:26.194Z,101867.81
2023-05-14T11:39:54.331Z,101846.41
2023-05-14T11:42:22.226Z,101858.03
2023-05-14T11:44:52.000Z,101840.81
2023-05-14T11:47:20.322Z,101855.03
2023-05-14T11:49:47.941Z,101854.63
2023-05-14T11:52:16.341Z,101861.41
2023-05-14T11:54:44.273Z,101845.19
2023-05-14T11:57:21.849Z,101804.94
2023-05-14T11:59:55.607Z,101845.97
2023-05-14T12:02:23.002Z,101847.75
2023-05-14T12:04:54.801Z,101837.38
2023-05-14T12:07:21.318Z,101819.75
2023-05-14T12:09:49.701Z,101833.25
2023-05-14T12:12:21.343Z,101834.00
2023-05-14T12:14:49.371Z,101825.31
2023-05-14T12:17:20.816Z,101794.22
2023-05-14T12:19:54.324Z,101783.69
2023-05-14T12:22:22.997Z,101785.63
2023-05-14T12:24:54.551Z,101829.44
2023-05-14T12:27:26.164Z,101815.25
2023-05-14T12:30:20.569Z,101820.22
2023-05-14T12:32:51.896Z,101809.47
2023-05-14T12:35:18.687Z,101815.44
2023-05-14T12:37:45.175Z,101799.88
2023-05-14T12:40:11.898Z,101800.72
2023-05-14T12:42:38.369Z,101785.44
2023-05-14T12:45:08.737Z,101803.31
2023-05-14T12:47:36.311Z,101800.38
2023-05-14T12:50:03.543Z,101808.47
2023-05-14T12:54:59.307Z,101791.19
2023-05-14T12:57:27.730Z,101793.72
2023-05-14T12:59:55.251Z,101759.28
2023-05-14T13:02:21.943Z,101793.72
2023-05-14T13:04:48.379Z,101791.81
2023-05-14T13:07:15.521Z,101802.47
2023-05-14T13:09:41.934Z,101789.19
2023-05-14T13:12:09.044Z,101779.38
2023-05-14T13:14:36.419Z,101782.28
2023-05-14T13:17:04.237Z,101801.75
2023-05-14T13:19:30.776Z,101784.16
2023-05-14T13:21:57.398Z,101792.06
2023-05-14T13:24:25.014Z,101796.13
2023-05-14T13:26:51.499Z,101786.72
2023-05-14T13:29:17.952Z,101786.31
2023-05-14T13:31:44.381Z,101789.03
2023-05-14T13:34:10.842Z,101768.88
2023-05-14T13:36:39.629Z,101790.59
2023-05-14T13:39:06.880Z,101785.13
2023-05-14T13:41:37.656Z,101765.66
2023-05-14T13:44:04.684Z,101764.16
2023-05-14T13:46:31.158Z,101772.69
2023-05-14T13:48:57.561Z,101759.97
2023-05-14T13:51:23.975Z,101759.41
2023-05-14T13:53:50.539Z,101773.16
2023-05-14T13:56:16.963Z,101773.25
2023-05-14T13:58:43.445Z,101764.19
2023-05-14T14:01:09.872Z,101765.03
2023-05-14T14:03:36.386Z,101732.94
2023-05-14T14:06:03.109Z,101761.03
2023-05-14T14:08:29.602Z,101750.09
2023-05-14T14:10:56.064Z,101743.34
2023-05-14T14:13:22.962Z,101751.59
2023-05-14T14:15:50.220Z,101722.34
2023-05-14T14:18:16.753Z,101741.06
2023-05-14T14:20:43.227Z,101742.75
2023-05-14T14:23:09.630Z,101744.00
2023-05-14T14:25:36.040Z,101728.03
2023-05-14T14:28:02.473Z,101730.69
2023-05-14T14:30:28.943Z,101738.88
2023-05-14T14:32:55.517Z,101724.09
2023-05-14T14:35:22.218Z,101733.19
2023-05-14T14:37:50.711Z,101730.47
2023-05-14T14:40:17.273Z,101724.88
2023-05-14T14:42:44.297Z,101730.72
2023-05-14T14:45:11.773Z,101717.25
2023-05-14T14:47:38.223Z,101731.56
2023-05-14T14:50:05.899Z,101719.38
2023-05-14T14:52:32.385Z,101736.06
2023-05-14T14:54:58.852Z,101725.34
2023-05-14T14:57:26.712Z,101726.00
2023-05-14T14:59:53.113Z,101717.81
2023-05-14T15:02:20.014Z,101702.75
2023-05-14T15:04:46.475Z,101713.81
2023-05-14T15:07:13.035Z,101720.03
2023-05-14T15:09:39.531Z,101723.03
2023-05-14T15:12:06.355Z,101726.59
2023-05-14T15:14:32.838Z,101722.09
2023-05-14T15:16:59.325Z,101723.06
2023-05-14T15:19:25.765Z,101709.50
2023-05-14T15:21:52.432Z,101713.88
2023-05-14T15:24:18.872Z,101709.81
2023-05-14T15:26:45.746Z,101695.94
2023-05-14T15:29:12.178Z,101716.19
2023-05-14T15:31:39.753Z,101714.72
2023-05-14T15:34:06.358Z,101705.16
2023-05-14T15:36:32.861Z,101712.28
2023-05-14T15:38:59.902Z,101697.81
2023-05-14T15:41:28.683Z,101709.81
2023-05-14T15:43:56.072Z,101713.41
2023-05-14T15:46:23.671Z,101706.94
2023-05-14T15:48:50.172Z,101691.03
2023-05-14T15:51:16.682Z,101696.59
2023-05-14T15:53:43.159Z,101683.38
2023-05-14T15:56:09.915Z,101679.53
2023-05-14T15:58:36.359Z,101689.56
2023-05-14T16:01:02.973Z,101685.38
2023-05-14T16:03:29.466Z,101693.09
2023-05-14T16:05:56.094Z,101660.78
2023-05-14T16:08:22.594Z,101707.44
2023-05-14T16:10:48.987Z,101698.91
2023-05-14T16:13:15.538Z,101695.72
2023-05-14T16:15:42.183Z,101700.25
2023-05-14T16:18:08.918Z,101696.72
2023-05-14T16:20:35.404Z,101702.59
2023-05-14T16:23:01.794Z,101671.56
2023-05-14T16:25:30.592Z,101706.94
2023-05-14T16:27:57.430Z,101707.47
2023-05-14T16:30:24.188Z,101711.88
2023-05-14T16:32:50.924Z,101718.97
2023-05-14T16:35:17.402Z,101710.50
2023-05-14T16:37:43.796Z,101720.84
2023-05-14T16:40:11.727Z,101713.41
2023-05-14T16:42:38.684Z,101720.50
2023-05-14T16:45:05.599Z,101734.88
2023-05-14T16:47:32.048Z,101730.91
2023-05-14T16:49:58.595Z,101725.88
2023-05-14T16:52:25.131Z,101747.81
2023-05-14T16:54:51.554Z,101729.34
2023-05-14T16:57:18.009Z,101747.81
2023-05-14T16:59:45.329Z,101747.00
2023-05-14T17:02:11.740Z,101723.66
2023-05-14T17:04:41.836Z,101732.72
2023-05-14T17:07:08.460Z,101748.09
2023-05-14T17:09:34.991Z,101748.13
2023-05-14T17:12:01.461Z,101732.63
2023-05-14T17:14:27.902Z,101735.59
2023-05-14T17:16:54.818Z,101730.91
2023-05-14T17:19:21.267Z,101730.16
2023-05-14T17:21:47.804Z,101720.66
2023-05-14T17:24:14.203Z,101732.69
2023-05-14T17:26:40.699Z,101736.69
2023-05-14T17:29:07.098Z,101739.53
2023-05-14T17:31:33.574Z,101739.66
2023-05-14T17:33:59.978Z,101748.03
2023-05-14T17:36:28.425Z,101738.19
2023-05-14T17:38:54.986Z,101738.03
2023-05-14T17:41:21.605Z,101740.19
2023-05-14T17:43:48.042Z,101745.38
2023-05-14T17:46:14.516Z,101736.19
2023-05-14T17:48:40.975Z,101747.66
2023-05-14T17:51:07.437Z,101741.63
2023-05-14T17:53:33.838Z,101745.63
2023-05-14T17:56:00.260Z,101732.41
2023-05-14T17:58:26.784Z,101749.94
2023-05-14T18:00:53.385Z,101756.22
2023-05-14T18:03:20.368Z,101754.31
2023-05-14T18:05:47.285Z,101771.78
2023-05-14T18:08:14.539Z,101761.25
2023-05-14T18:10:40.952Z,101769.72
2023-05-14T18:13:07.394Z,101747.38
2023-05-14T18:15:35.225Z,101751.34
2023-05-14T18:18:01.709Z,101741.97
2023-05-14T18:20:28.284Z,101754.22
2023-05-14T18:22:54.707Z,101729.69
2023-05-14T18:25:21.110Z,101756.81
2023-05-14T18:27:47.602Z,101754.00
2023-05-14T18:30:15.345Z,101771.47
2023-05-14T18:32:43.872Z,101778.13
2023-05-14T18:35:11.616Z,101772.19
2023-05-14T18:37:38.167Z,101772.00
2023-05-14T18:40:05.221Z,101754.50
2023-05-14T18:42:31.694Z,101757.25
2023-05-14T18:44:58.151Z,101746.03
2023-05-14T18:47:24.790Z,101761.13
2023-05-14T18:49:55.093Z,101758.09
2023-05-14T18:52:22.857Z,101767.16
2023-05-14T18:54:50.829Z,101755.75
2023-05-14T18:57:17.326Z,101766.69
2023-05-14T18:59:43.761Z,101780.47
2023-05-14T19:02:10.187Z,101771.91
2023-05-14T19:04:50.624Z,101783.28
2023-05-14T19:07:18.792Z,101770.28
2023-05-14T19:09:46.465Z,101768.25
2023-05-14T19:12:13.400Z,101762.47
2023-05-14T19:14:39.815Z,101771.28
2023-05-14T19:17:06.286Z,101762.94
2023-05-14T19:19:32.768Z,101754.19
2023-05-14T19:21:59.267Z,101770.38
2023-05-14T19:24:25.849Z,101779.78
2023-05-14T19:26:52.637Z,101774.09
2023-05-14T19:29:19.196Z,101780.81
2023-05-14T19:31:45.748Z,101780.88
2023-05-14T19:34:12.188Z,101776.69
2023-05-14T19:36:38.742Z,101778.50
2023-05-14T19:39:05.240Z,101786.53
2023-05-14T19:41:31.637Z,101766.41
2023-05-14T19:43:58.116Z,101785.16
2023-05-14T19:46:24.663Z,101770.22
2023-05-14T19:48:51.093Z,101780.81
2023-05-14T19:51:17.519Z,101780.25
2023-05-14T19:53:43.966Z,101774.56
2023-05-14T19:56:10.910Z,101782.63
2023-05-14T19:58:37.374Z,101777.28
2023-05-14T20:01:04.350Z,101758.47
2023-05-14T20:03:30.925Z,101778.13
2023-05-14T20:05:57.965Z,101777.22
2023-05-14T20:08:24.958Z,101770.44
2023-05-14T20:10:54.066Z,101769.91
2023-05-14T20:13:22.376Z,101773.09
2023-05-14T20:15:50.333Z,101754.56
2023-05-14T20:18:16.892Z,101752.38
2023-05-14T20:20:43.881Z,101741.88
2023-05-14T20:23:10.264Z,101753.56
2023-05-14T20:25:36.678Z,101753.56
2023-05-14T20:28:04.286Z,101727.69
2023-05-14T20:30:31.019Z,101755.06
2023-05-14T20:32:57.750Z,101736.41
2023-05-14T20:35:24.371Z,101741.50
2023-05-14T20:37:52.221Z,101727.41
2023-05-14T20:40:18.851Z,101744.66
2023-05-14T20:42:45.469Z,101736.63
2023-05-14T20:45:11.947Z,101745.09
2023-05-14T20:47:38.655Z,101760.47
2023-05-14T20:50:05.709Z,101758.69
2023-05-14T20:52:32.160Z,101718.00
2023-05-14T20:55:00.846Z,101747.31
2023-05-14T20:57:28.424Z,101744.97
2023-05-14T20:59:54.875Z,101747.34
2023-05-14T21:02:21.536Z,101758.69
2023-05-14T21:04:48.241Z,101757.84
2023-05-14T21:07:14.757Z,101748.38
2023-05-14T21:09:41.184Z,101717.31
2023-05-14T21:12:08.310Z,101746.31
2023-05-14T21:14:34.769Z,101753.41
2023-05-14T21:17:01.212Z,101737.97
2023-05-14T21:19:27.614Z,101745.22
2023-05-14T21:21:54.007Z,101742.28
2023-05-14T21:24:20.541Z,101733.06
2023-05-14T21:26:46.980Z,101719.56
2023-05-14T21:29:13.466Z,101730.72
2023-05-14T21:31:39.997Z,101698.66
2023-05-14T21:34:06.427Z,101732.53
2023-05-14T21:36:33.076Z,101730.44
2023-05-14T21:38:59.497Z,101723.34
2023-05-14T21:41:25.925Z,101721.25
2023-05-14T21:43:52.588Z,101744.00
2023-05-14T21:46:19.150Z,101719.03
2023-05-14T21:48:45.762Z,101710.13
2023-05-14T21:51:12.260Z,101726.97
2023-05-14T21:53:38.700Z,101731.16
2023-05-14T21:56:06.088Z,101734.66
2023-05-14T21:58:32.619Z,101715.28
2023-05-14T22:00:59.078Z,101724.59
2023-05-14T22:03:25.738Z,101730.31
2023-05-14T22:05:53.156Z,101713.53
2023-05-14T22:08:19.607Z,101726.13
2023-05-14T22:10:46.948Z,101707.97
2023-05-14T22:13:13.379Z,101732.69
2023-05-14T22:15:39.874Z,101733.09
2023-05-14T22:18:06.927Z,101715.22
2023-05-14T22:20:33.395Z,101725.69
2023-05-14T22:22:59.810Z,101723.34
2023-05-14T22:25:26.424Z,101723.19
2023-05-14T22:27:53.083Z,101702.25
2023-05-14T22:30:19.544Z,101716.75
2023-05-14T22:32:46.117Z,101672.94
2023-05-14T22:35:12.711Z,101693.03
2023-05-14T22:37:39.123Z,101698.50
2023-05-14T22:40:07.371Z,101700.97
2023-05-14T22:42:33.823Z,101692.75
2023-05-14T22:45:00.284Z,101694.16
2023-05-14T22:47:26.936Z,101675.22
2023-05-14T22:49:53.368Z,101694.88
2023-05-14T22:52:19.864Z,101678.25
2023-05-14T22:54:46.694Z,101676.59
2023-05-14T22:57:13.208Z,101671.28
2023-05-14T22:59:39.725Z,101672.16
2023-05-14T23:02:06.801Z,101662.38
2023-05-14T23:04:33.492Z,101666.84
2023-05-14T23:07:00.047Z,101661.97
2023-05-14T23:09:26.584Z,101672.41
2023-05-14T23:11:53.126Z,101651.06
2023-05-14T23:14:19.708Z,101664.88
2023-05-14T23:16:46.190Z,101676.88
2023-05-14T23:19:12.999Z,101670.03
2023-05-14T23:21:39.534Z,101630.28
2023-05-14T23:24:06.253Z,101659.72
2023-05-14T23:26:32.763Z,101665.16
2023-05-14T23:28:59.169Z,101671.81
2023-05-14T23:31:25.711Z,101668.38
2023-05-14T23:33:52.395Z,101672.66
2023-05-14T23:36:18.904Z,101648.97
2023-05-14T23:38:45.808Z,101666.41
2023-05-14T23:41:12.222Z,101638.81
2023-05-14T23:43:38.658Z,101664.28
2023-05-14T23:46:05.382Z,101664.28
2023-05-14T23:48:31.956Z,101648.13
2023-05-14T23:50:58.416Z,101661.78
2023-05-14T23:53:24.974Z,101664.00
2023-05-14T23:55:51.615Z,101650.34
2023-05-14T23:58:18.209Z,101654.25
